Cincinnati, OH

10:51 AM EST on December 22, 2014 (GMT -0500)
Mount Lookout | Change Station
CLOSE
Current Station
Personal Weather Station
Location: Cincinnati, OH
Elevation: 650 ft
Nearby Weather Stations

Elev 650 ft 39.12 °N, 84.42 °W | Updated 3 minutes ago

Partly Cloudy
Partly Cloudy
42.1 °F
Feels Like 42 °F
N
2.0
Wind Variable Wind from SE
Gusts 4.0 mph

Today
High -- | Low -- °F
--% Chance of Precip.
Yesterday
High -- | Low -- °F
Precip. -- in
7:53 AM 5:18 PM
New Moon, 0% visible
Pressure 30.02 in
Visibility 10.0 miles
Clouds Few 2500 ft
Windchill 42 °F
Dew Point 35 °F
Humidity 77%
Rainfall 0.00 in
Snow Depth Not available.
UV 1 out of 12
Pollen .10 out of 12
Air Quality Not available.
Flu Activity Not available.
SPECI KLUK 221524Z 00000KT 10SM FEW025 04/00 A3002 RMK AO2 T00440000

More Conditions Fewer Conditions

Pressure 30.02 in
Visibility 10.0 miles
Clouds Few 2500 ft
Windchill 42 °F
Dew Point 35 °F
Humidity 77%
Rainfall 0.00 in
Snow Depth Not available.
UV 1 out of 12
Pollen .10 out of 12
Air Quality Not available.
Flu Activity Not available.
SPECI KLUK 221524Z 00000KT 10SM FEW025 04/00 A3002 RMK AO2 T00440000

More Conditions Fewer Conditions

10-Day Weather Forecast

Almanac

Astronomy

Dec. 22, 2014 Rise Set
Actual Time
Civil Twilight
Nautical Twilight
Astronomical Twilight
Moon
Length of Visible Light
Length of Day
Tomorrow will be .
, % of the Moon is Illuminated

Today's Extremes

State Highs State Lows

Community

WunderPhotos

Upload Photos

1,779,620 photos uploaded!

WunderBlogs® & News

Nearby

Air Quality

  Air Quality AQ Index Pollutant
Not available.

Snow Depth

Station Depth Elevation

Earthquake Activity

City Distance Mag. Time & Date
Minimum magnitude displayed is 2.5.

Coastal Water Temperatures

Place Temperature

Nearby Weather Stations